Impacts TAF Board
For situational awareness. Not to be used for flight planning purposes.
IDs:

KDEN - Denver Intl, CO, US

Issued at 0540 UTC 28 Sep 2022
Updated at 0617 UTC 28 Sep 2022
Potential Impact None Slight Moderate High
Time<<28/19Z 28/20Z 28/21Z 28/22Z 28/23Z 29/00Z 29/01Z 29/02Z 29/03Z 29/04Z 29/05Z 29/06Z 29/07Z>>
Type PRVL PRVL PRVL PRVL PRVL PRVL PRVL PRVL PRVL PRVL PRVL PRVL PRVL
VIS >6 >6 >6 >6 >6 >6 >6 >6 >6 >6 >6 >6 >6
CIG -- -- -- -- -- -- -- -- -- -- -- -- --
Cover SCT SCT SCT SCT SCT SCT SCT SCT SCT SKC SKC SKC SKC
FltCat VFR VFR VFR VFR VFR VFR VFR VFR VFR VFR VFR VFR VFR
WX -- -- -- -- -- -- -- -- -- -- -- -- --
WDir 10 10 90 90 90 90 140 140 140 200 200 200 200
WSpd 6 6 7 7 7 7 8 8 8 9 9 9 9
WGst -- -- -- -- -- -- -- -- -- -- -- -- --
WSHgt -- -- -- -- -- -- -- -- -- -- -- -- --
WSDir -- -- -- -- -- -- -- -- -- -- -- -- --
WSSpd -- -- -- -- -- -- -- -- -- -- -- -- --
Raw TAF
KDEN 280540Z 2806/2912 18011KT P6SM SCT100 BKN150
  FM280800 21010KT P6SM FEW100 SCT150
  FM281400 24006KT P6SM FEW100
  FM281900 01006KT P6SM SCT100
  FM282100 09007KT P6SM SCT100
  FM290100 14008KT P6SM SCT100
  FM290400 20009KT P6SM SKC


METAR Board
Radar Display
Forecast Discussion
For situational awareness. Not to be used for flight planning purposes.